Flight Track Log - Related Links

Times and Time Zones

All times are in EDT time to prevent confusion due to time zone crossing. See the KAP927 flight status page for this flight to view local times or setup timezone preferences in your user account.

Time Position Orientation Groundspeed Altitude Reporting Facility
EDT Latitude Longitude Course Direction KTS MPH feet Rate Location/Type
Fri 05:02:56 PM 44.5442 -75.3150 149° Southeast 155 178 4,400  Level Boston Center
Fri 05:03:56 PM 44.5136 -75.2875 147° Southeast 155 178 5,000 600 Climbing Boston Center
Fri 05:04:56 PM 44.4850 -75.2628 148° Southeast 141 162 5,600 650 Climbing Boston Center
Fri 05:05:56 PM 44.4544 -75.2350 147° Southeast 134 154 6,300 750 Climbing Boston Center
Fri 05:06:56 PM 44.4217 -75.2131 154° Southeast 134 154 7,100 700 Climbing Boston Center
Fri 05:07:56 PM 44.3911 -75.1856 147° Southeast 134 154 7,700 650 Climbing Boston Center
Fri 05:08:00 PM 44.4818 -75.2873 149° Southeast  Level Estimated
Fri 05:08:56 PM 44.3583 -75.1581 149° Southeast 134 154 8,400  Level Boston Center
Fri 05:09:56 PM 44.3278 -75.1306 147° Southeast 139 160 8,900 550 Climbing Boston Center
Fri 05:10:56 PM 44.2911 -75.0997 149° Southeast 139 160 9,500 500 Climbing Boston Center
Fri 05:11:56 PM 44.2542 -75.0692 149° Southeast 139 160 9,900 550 Climbing Boston Center
Fri 05:12:56 PM 44.2217 -75.0386 146° Southeast 139 160 10,600 600 Climbing Boston Center
Fri 05:13:56 PM 44.1889 -75.0083 146° Southeast 139 160 11,100 450 Climbing Boston Center
Fri 05:14:56 PM 44.1542 -74.9778 148° Southeast 139 160 11,500 250 Climbing Boston Center
Fri 05:15:56 PM 44.1153 -74.9444 148° Southeast 145 167 11,600  Climbing Boston Center
Fri 05:17:08 PM 44.0764 -74.9111 148° Southeast 155 178 11,500  Descending Boston Center
Fri 05:18:20 PM 44.0233 -74.8597 145° Southeast 161 185 11,600  Climbing Boston Center
Fri 05:19:20 PM 43.9844 -74.8233 146° Southeast 166 191 11,500 -50 Descending Boston Center
Fri 05:20:20 PM 43.9433 -74.7931 152° Southeast 166 191 11,500  Level Boston Center
Fri 05:21:20 PM 43.9044 -74.7597 148° Southeast 166 191 11,500  Level Boston Center
Fri 05:22:20 PM 43.8636 -74.7267 150° Southeast 166 191 11,500  Level Boston Center
Fri 05:23:20 PM 43.8244 -74.6933 148° Southeast 166 191 11,500  Level Boston Center
Fri 05:24:20 PM 43.7833 -74.6631 152° Southeast 166 191 11,500  Level Boston Center
Fri 05:25:20 PM 43.7444 -74.6300 148° Southeast 166 191 11,500 -100 Level Boston Center
Fri 05:26:20 PM 43.7033 -74.5997 152° Southeast 166 191 11,300 -350 Descending Boston Center
Fri 05:27:20 PM 43.6583 -74.5639 150° Southeast 172 198 10,800 -450 Descending Boston Center
Fri 05:28:20 PM 43.6150 -74.5308 151° Southeast 178 205 10,400 -450 Descending Boston Center
Fri 05:29:20 PM 43.5719 -74.4947 149° Southeast 183 211 9,900 -500 Descending Boston Center
Fri 05:30:20 PM 43.5311 -74.4533 144° Southeast 183 211 9,400 -400 Descending Boston Center
Fri 05:31:20 PM 43.4900 -74.4119 144° Southeast 183 211 9,100 -450 Descending Boston Center
Fri 05:32:20 PM 43.4489 -74.3733 146° Southeast 183 211 8,500 -462 Descending Boston Center
Fri 05:33:30 PM 43.3997 -74.3317 148° Southeast 180 207 8,100 -350 Descending Boston Center
Fri 05:34:20 PM 43.3606 -74.3019 151° Southeast 183 211 7,800 -382 Descending Boston Center
Fri 05:35:20 PM 43.3236 -74.2722 150° Southeast 177 204 7,400 -350 Descending Boston Center
Fri 05:36:20 PM 43.2783 -74.2367 150° Southeast 177 204 7,100 -385 Descending Boston Center
Fri 05:36:38 PM 43.2658 -74.2308 161° South 171 197 6,900 -500 Descending Boston Center
Fri 05:37:20 PM 43.2411 -74.2072 145° Southeast 177 204 6,600 -492 Descending Boston Center
Fri 05:37:39 PM 43.2267 -74.2011 163° South 169 194 6,400 -400 Descending Boston Center
Fri 05:38:20 PM 43.1981 -74.1717 143° Southeast 177 204 6,200 -400 Descending Boston Center
Fri 05:38:39 PM 43.1856 -74.1656 160° South 169 194 6,000 -400 Descending Boston Center
Fri 05:39:20 PM 43.1631 -74.1394 140° Southeast 177 204 5,800 -492 Descending Boston Center
Fri 05:39:40 PM 43.1444 -74.1219 146° Southeast 169 194 5,500 -500 Descending Boston Center
Fri 05:40:20 PM 43.1197 -74.1014 149° Southeast 172 198 5,300 -327 Descending Boston Center
Fri 05:40:35 PM 43.1117 -74.0953 151° Southeast 169 194 5,200 -395 Descending Boston Center
Fri 05:41:36 PM 43.0706 -74.0572 146° Southeast 166 191 4,800 -393 Descending Boston Center
Fri 05:42:37 PM 43.0333 -74.0194 143° Southeast 166 191 4,400 -404 Descending Boston Center
Fri 05:43:20 PM 43.0067 -73.9961 147° Southeast 167 192 4,100 -400 Descending Boston Center
Fri 05:43:37 PM 42.9922 -73.9842 149° Southeast 169 194 4,000 -500 Descending Boston Center
Fri 05:44:20 PM 42.9656 -73.9581 144° Southeast 167 192 3,600 -492 Descending Boston Center
Fri 05:44:38 PM 42.9553 -73.9494 148° Southeast 170 196 3,500 -300 Descending Boston Center
Fri 05:45:20 PM 42.9306 -73.9261 145° Southeast 162 186 3,300 -197 Descending Boston Center
Fri 05:45:39 PM 42.9161 -73.9172 156° South 161 185 3,300 -200 Level Boston Center
Fri 05:46:20 PM 42.8914 -73.8911 142° Southeast 162 186 3,100 -393 Descending Boston Center
Fri 05:46:40 PM 42.8789 -73.8794 146° Southeast 159 183 2,900 -400 Descending Boston Center
Fri 05:47:20 PM 42.8564 -73.8592 147° Southeast 162 186 2,700 -600 Descending Boston Center
Fri 05:47:40 PM 42.8419 -73.8444 143° Southeast 172 198 2,300 -667 Descending Boston Center
Fri 05:48:41 PM 42.8008 -73.8039 144° Southeast 165 190 1,800 -590 Descending Boston Center
Fri 05:49:42 PM 42.7678 -73.7750 147° Southeast 136 157 1,100 -689 Descending Boston Center

Login

Don't have an account? Register now (free) for customized features, flight alerts, and more!